Avila Beach, California
Current Conditions -  °F | °C
As of 10:56 PM on Friday 19 Dec 2014 (Local Time) from KSBP Reporting Station
Overcast Overcast  
Wind Chill: 55°   Ceiling: 2200
Heat Index: 55°   Visibility: 10mi
Dew Point: 52°   Wind: 0mph
Humidity: 89%   Direction: NA
Pressure: 30.21"   Gusts: NA
Location:  35.18°N, 120.73°W
Report Text: KSBP 200656Z AUTO 00000KT 10SM OVC022 13/11 A3021 RMK AO2 SLP228 T01280111
Loading
Personal Weather Stations






























Interactive Weather Map New forecast layout! Learn more

10-Day Weather Forecast

Advertisements
Track Severe Weather on mobile